Time;durP1;ratioP1;P1;durP2;ratioP2;P2;SDS_P1;SDS_P2;PMS_P1;PMS_P2;Temp;Humidity;BMP_temperature;BMP_pressure;BME280_temperature;BME280_humidity;BME280_pressure;Samples;Min_cycle;Max_cycle;Signal;HPM_P1;HPM_P2
2022/09/12 00:01:52;;;;;;;;;;;;;;;20.13;52.31;98939.09;4480581;32;33679;-91
2022/09/12 00:04:22;;;;;;;;;;;;;;;19.60;53.62;98946.72;4484316;32;34499;-90
2022/09/12 00:06:49;;;;;;;;;;;;;;;19.44;54.10;98936.59;4484152;32;34478;-90
2022/09/12 00:09:16;;;;;;;;;;;;;;;19.65;53.39;98939.56;4483555;31;34400;-90
2022/09/12 00:11:44;;;;;;;;;;;;;;;19.65;53.47;98931.69;4471199;32;34418;-90
2022/09/12 00:14:13;;;;;;;;;;;;;;;19.38;54.30;98943.78;4471628;31;34067;-91
2022/09/12 00:16:40;;;;;;;;;;;;;;;19.30;54.06;98936.09;4468421;32;34966;-91
2022/09/12 00:19:08;;;;;;;;;;;;;;;19.84;53.06;98932.88;4468307;32;34104;-91
2022/09/12 00:21:36;;;;;;;;;;;;;;;20.10;51.91;98932.13;4453829;32;34154;-90
2022/09/12 00:24:03;;;;;;;;;;;;;;;19.83;53.02;98943.47;4469930;32;34803;-91
2022/09/12 00:26:30;;;;;;;;;;;;;;;19.60;53.54;98936.19;4475180;32;34207;-90
2022/09/12 00:28:57;;;;;;;;;;;;;;;19.66;53.29;98942.19;4474688;32;33119;-92
2022/09/12 00:31:25;;;;;;;;;;;;;;;19.40;53.97;98945.47;4468410;32;34282;-94
2022/09/12 00:33:54;;;;;;;;;;;;;;;19.02;55.30;98953.50;4468265;32;35052;-94
2022/09/12 00:36:22;;;;;;;;;;;;;;;19.89;52.79;98954.69;4468068;32;34825;-93
2022/09/12 00:38:50;;;;;;;;;;;;;;;19.88;52.77;98947.69;4472227;32;34198;-94
2022/09/12 00:41:19;;;;;;;;;;;;;;;20.29;51.52;98942.97;4483643;32;34625;-92
2022/09/12 00:43:47;;;;;;;;;;;;;;;19.74;53.12;98947.22;4455842;31;33755;-94
2022/09/12 00:46:24;;;;;;;;;;;;;;;19.80;52.99;98944.41;4479088;32;33617;-93
2022/09/12 00:48:53;;;;;;;;;;;;;;;20.56;50.65;98951.81;4467870;32;33257;-93
2022/09/12 00:51:20;;;;;;;;;;;;;;;20.97;49.68;98944.38;4468921;32;33988;-92
2022/09/12 00:53:47;;;;;;;;;;;;;;;19.99;52.28;98957.91;4483088;31;34476;-91
2022/09/12 00:56:15;;;;;;;;;;;;;;;20.71;50.34;98949.63;4469586;32;35264;-86
2022/09/12 00:58:44;;;;;;;;;;;;;;;21.17;49.04;98954.25;4469255;32;33977;-93
2022/09/12 01:01:11;;;;;;;;;;;;;;;20.74;50.17;98939.00;4466975;32;34366;-92
2022/09/12 01:03:38;;;;;;;;;;;;;;;21.25;48.94;98940.81;4469031;32;34943;-93
2022/09/12 01:06:15;;;;;;;;;;;;;;;20.06;51.56;98961.22;4483793;32;33843;-94
2022/09/12 01:08:43;;;;;;;;;;;;;;;19.02;55.28;98964.00;4463911;32;34237;-92
2022/09/12 01:11:10;;;;;;;;;;;;;;;20.14;52.40;98959.22;4465718;32;34634;-90
2022/09/12 01:13:37;;;;;;;;;;;;;;;20.65;50.85;98961.25;4483198;32;34940;-93
2022/09/12 01:16:06;;;;;;;;;;;;;;;20.70;50.70;98954.03;4462661;32;35058;-91
2022/09/12 01:18:45;;;;;;;;;;;;;;;20.58;50.96;98954.44;4474507;32;33102;-89
2022/09/12 01:21:33;;;;;;;;;;;;;;;20.28;51.73;98946.53;4469240;32;34923;-90
2022/09/12 01:24:13;;;;;;;;;;;;;;;20.18;52.17;98945.94;4461604;32;35238;-84
2022/09/12 01:26:53;;;;;;;;;;;;;;;19.54;53.80;98944.22;4469457;32;34166;-92
2022/09/12 01:29:34;;;;;;;;;;;;;;;19.46;54.73;98954.97;4465531;31;33281;-88
2022/09/12 01:32:02;;;;;;;;;;;;;;;20.13;53.03;98960.16;4453764;32;34614;-91
2022/09/12 01:34:41;;;;;;;;;;;;;;;20.36;52.24;98954.19;4476360;32;34554;-91
2022/09/12 01:37:21;;;;;;;;;;;;;;;20.51;51.63;98952.91;4483501;32;34504;-92
2022/09/12 01:39:50;;;;;;;;;;;;;;;20.04;53.10;98949.87;4469060;32;33385;-92
2022/09/12 01:42:19;;;;;;;;;;;;;;;19.57;54.67;98954.69;4454298;32;34224;-91
2022/09/12 01:44:49;;;;;;;;;;;;;;;19.74;54.10;98951.63;4453673;32;35146;-91
2022/09/12 01:47:25;;;;;;;;;;;;;;;20.27;52.73;98949.22;4453376;32;34402;-92
2022/09/12 01:49:53;;;;;;;;;;;;;;;19.52;54.56;98943.44;4467699;32;34534;-93
2022/09/12 01:52:27;;;;;;;;;;;;;;;19.70;54.21;98942.97;4467738;32;33988;-93
2022/09/12 01:55:16;;;;;;;;;;;;;;;20.63;51.38;98942.81;4467636;32;34115;-85
2022/09/12 01:57:46;;;;;;;;;;;;;;;19.96;53.39;98954.50;4453527;32;33936;-92
2022/09/12 02:00:13;;;;;;;;;;;;;;;19.18;55.84;98957.47;4453294;32;33544;-93
2022/09/12 02:03:01;;;;;;;;;;;;;;;19.51;54.82;98952.19;4453049;32;35085;-92
2022/09/12 02:05:33;;;;;;;;;;;;;;;19.62;54.53;98963.31;4453568;32;35346;-92
2022/09/12 02:08:00;;;;;;;;;;;;;;;19.27;55.59;98966.84;4453211;32;34185;-93
2022/09/12 02:10:30;;;;;;;;;;;;;;;18.64;57.39;98969.22;4467234;32;33367;-91
2022/09/12 02:13:18;;;;;;;;;;;;;;;18.44;57.96;98964.41;4452817;32;34353;-90
2022/09/12 02:15:47;;;;;;;;;;;;;;;20.00;53.69;98964.91;4467332;32;35207;-91
2022/09/12 02:18:16;;;;;;;;;;;;;;;19.01;56.70;98972.75;4453161;32;34084;-90
2022/09/12 02:20:44;;;;;;;;;;;;;;;19.80;54.15;98964.59;4453298;32;33192;-91
2022/09/12 02:23:16;;;;;;;;;;;;;;;19.49;54.82;98969.78;4453111;32;35194;-90
2022/09/12 02:25:44;;;;;;;;;;;;;;;18.90;57.29;98963.41;4453358;32;33828;-89
2022/09/12 02:28:21;;;;;;;;;;;;;;;19.64;54.77;98969.41;4453104;32;34317;-92
2022/09/12 02:30:57;;;;;;;;;;;;;;;20.09;53.58;98956.75;4453018;32;33336;-89
2022/09/12 02:33:28;;;;;;;;;;;;;;;20.39;52.46;98954.97;4467324;32;33808;-91
2022/09/12 02:36:22;;;;;;;;;;;;;;;20.99;50.85;98957.53;4451980;32;35056;-92
2022/09/12 02:38:49;;;;;;;;;;;;;;;20.61;51.62;98949.94;4450510;32;34108;-90
2022/09/12 02:41:17;;;;;;;;;;;;;;;21.09;50.20;98961.56;4458766;32;34329;-92
2022/09/12 02:43:45;;;;;;;;;;;;;;;20.74;50.94;98945.12;4468386;32;34972;-91
2022/09/12 02:46:14;;;;;;;;;;;;;;;21.06;50.11;98957.25;4454245;32;33935;-92
2022/09/12 02:48:41;;;;;;;;;;;;;;;21.09;49.89;98956.28;4459037;32;34300;-92
2022/09/12 02:51:09;;;;;;;;;;;;;;;21.22;49.50;98959.38;4468422;32;34082;-91
2022/09/12 02:53:37;;;;;;;;;;;;;;;21.62;48.40;98962.38;4459338;32;34049;-88
2022/09/12 02:56:04;;;;;;;;;;;;;;;20.70;50.71;98958.44;4467175;32;33877;-93
2022/09/12 02:58:32;;;;;;;;;;;;;;;19.58;53.77;98959.88;4466336;32;33920;-92
2022/09/12 03:01:02;;;;;;;;;;;;;;;19.92;52.92;98959.84;4468218;32;33453;-90
2022/09/12 03:03:48;;;;;;;;;;;;;;;19.04;55.50;98968.31;4468021;32;34986;-91
2022/09/12 03:06:17;;;;;;;;;;;;;;;20.15;52.36;98966.22;4481925;32;34513;-92
2022/09/12 03:08:53;;;;;;;;;;;;;;;20.16;52.29;98965.31;4466816;32;34262;-92
2022/09/12 03:11:25;;;;;;;;;;;;;;;20.37;51.79;98967.28;4466613;32;34090;-91
2022/09/12 03:14:05;;;;;;;;;;;;;;;20.25;51.82;98959.78;4452448;32;34080;-91
2022/09/12 03:16:38;;;;;;;;;;;;;;;20.65;50.67;98951.56;4472417;32;34312;-91
2022/09/12 03:19:11;;;;;;;;;;;;;;;20.05;52.06;98954.25;4469050;32;34987;-92
2022/09/12 03:21:47;;;;;;;;;;;;;;;19.80;52.62;98954.94;4466459;32;33613;-91
2022/09/12 03:24:16;;;;;;;;;;;;;;;20.41;50.45;98952.25;4466550;32;34072;-91
2022/09/12 03:26:54;;;;;;;;;;;;;;;19.92;51.92;98945.81;4452688;32;34496;-90
2022/09/12 03:29:21;;;;;;;;;;;;;;;20.01;51.67;98942.94;4452885;32;33610;-92
2022/09/12 03:31:55;;;;;;;;;;;;;;;19.40;53.47;98945.47;4452579;32;33099;-90
2022/09/12 03:34:24;;;;;;;;;;;;;;;20.09;51.88;98950.63;4452005;32;34858;-92
2022/09/12 03:36:51;;;;;;;;;;;;;;;19.31;53.97;98955.34;4474759;32;34504;-94
2022/09/12 03:39:19;;;;;;;;;;;;;;;18.57;55.87;98959.78;4467132;32;34097;-92
2022/09/12 03:41:46;;;;;;;;;;;;;;;19.37;53.60;98965.72;4466107;32;33530;-92
2022/09/12 03:44:13;;;;;;;;;;;;;;;19.62;52.96;98963.31;4479918;32;34975;-92
2022/09/12 03:46:40;;;;;;;;;;;;;;;18.82;55.12;98967.94;4482223;32;34288;-94
2022/09/12 03:49:09;;;;;;;;;;;;;;;18.80;55.37;98964.50;4468337;32;34049;-91
2022/09/12 03:51:36;;;;;;;;;;;;;;;18.34;56.88;98968.16;4469535;32;32640;-91
2022/09/12 03:54:04;;;;;;;;;;;;;;;18.96;54.71;98960.59;4484243;32;33852;-91
2022/09/12 03:56:31;;;;;;;;;;;;;;;18.65;55.68;98960.44;4484010;31;34092;-92
2022/09/12 03:58:58;;;;;;;;;;;;;;;18.78;55.53;98955.78;4476771;31;34498;-92
2022/09/12 04:01:26;;;;;;;;;;;;;;;18.91;54.92;98957.25;4460672;32;33904;-92
2022/09/12 04:03:53;;;;;;;;;;;;;;;18.88;55.00;98967.81;4482715;31;34982;-91
2022/09/12 04:06:20;;;;;;;;;;;;;;;19.27;53.23;98962.47;4484124;32;35000;-91
2022/09/12 04:08:49;;;;;;;;;;;;;;;19.14;53.94;98963.69;4458221;32;34268;-91
2022/09/12 04:11:17;;;;;;;;;;;;;;;19.90;51.87;98966.94;4466385;32;34284;-90
2022/09/12 04:13:44;;;;;;;;;;;;;;;19.47;52.75;98961.06;4482032;32;33814;-90
2022/09/12 04:16:12;;;;;;;;;;;;;;;19.29;53.26;98973.81;4457676;32;34563;-90
2022/09/12 04:18:39;;;;;;;;;;;;;;;19.69;52.43;98970.16;4468555;32;34753;-90
2022/09/12 04:21:07;;;;;;;;;;;;;;;19.40;53.02;98982.28;4470275;32;33645;-88
2022/09/12 04:23:34;;;;;;;;;;;;;;;20.00;51.02;98964.91;4469414;32;34866;-91
2022/09/12 04:26:02;;;;;;;;;;;;;;;19.65;52.10;98965.88;4469094;32;35027;-91
2022/09/12 04:28:31;;;;;;;;;;;;;;;18.24;56.12;98974.50;4465058;32;34704;-92
2022/09/12 04:31:02;;;;;;;;;;;;;;;18.80;54.81;98976.78;4472301;32;33509;-91
2022/09/12 04:33:30;;;;;;;;;;;;;;;19.80;51.70;98965.44;4468865;32;34122;-90
2022/09/12 04:36:01;;;;;;;;;;;;;;;18.60;54.83;98966.69;4466988;32;34238;-95
2022/09/12 04:38:28;;;;;;;;;;;;;;;19.18;53.56;98970.59;4483858;32;34830;-96
2022/09/12 04:40:56;;;;;;;;;;;;;;;19.11;53.41;98974.28;4473119;32;34386;-96
2022/09/12 04:43:23;;;;;;;;;;;;;;;19.10;53.63;98977.81;4471432;32;34929;-96
2022/09/12 04:45:50;;;;;;;;;;;;;;;19.34;53.17;98974.53;4472881;32;35330;-96
2022/09/12 04:48:18;;;;;;;;;;;;;;;19.85;51.90;98967.94;4458965;32;34200;-96
2022/09/12 04:50:45;;;;;;;;;;;;;;;19.84;51.79;98974.13;4472980;32;33881;-96
2022/09/12 04:53:13;;;;;;;;;;;;;;;19.55;52.59;98981.03;4472656;32;34321;-96
2022/09/12 04:55:41;;;;;;;;;;;;;;;20.11;51.25;98980.37;4469349;32;34767;-95
2022/09/12 04:58:08;;;;;;;;;;;;;;;20.63;49.65;98979.69;4471510;32;34921;-96
2022/09/12 05:00:35;;;;;;;;;;;;;;;20.18;50.80;98988.03;4469192;32;33542;-96
2022/09/12 05:03:02;;;;;;;;;;;;;;;20.36;50.46;98986.66;4470699;32;32630;-96
2022/09/12 05:05:29;;;;;;;;;;;;;;;21.23;48.20;98990.09;4469471;32;34315;-84
2022/09/12 05:07:56;;;;;;;;;;;;;;;21.47;47.69;98994.56;4468554;32;34310;-95
2022/09/12 05:10:24;;;;;;;;;;;;;;;21.96;46.25;98995.47;4468644;32;33500;-93
2022/09/12 05:12:51;;;;;;;;;;;;;;;21.47;47.11;98998.97;4468588;32;34374;-84
2022/09/12 05:15:19;;;;;;;;;;;;;;;22.14;45.59;98996.63;4468741;32;34819;-93
2022/09/12 05:17:47;;;;;;;;;;;;;;;22.60;45.03;98997.50;4470376;32;34015;-96
2022/09/12 05:20:15;;;;;;;;;;;;;;;22.36;45.16;98999.31;4470587;32;33352;-95
2022/09/12 05:22:42;;;;;;;;;;;;;;;22.85;44.29;99000.06;4469367;32;34079;-96
2022/09/12 05:25:09;;;;;;;;;;;;;;;21.70;46.73;99017.50;4470012;32;33695;-96
2022/09/12 05:27:37;;;;;;;;;;;;;;;22.32;45.62;99019.72;4470580;32;34535;-95
2022/09/12 05:30:05;;;;;;;;;;;;;;;21.18;48.33;99011.34;4483892;32;34016;-95
2022/09/12 05:32:32;;;;;;;;;;;;;;;21.31;47.96;99011.78;4484790;31;34045;-95
2022/09/12 05:34:59;;;;;;;;;;;;;;;21.51;47.58;99024.34;4484598;32;34594;-96
2022/09/12 05:37:27;;;;;;;;;;;;;;;21.84;46.85;99020.53;4479640;31;34118;-89
2022/09/12 05:39:54;;;;;;;;;;;;;;;21.96;46.23;99019.22;4473716;32;33250;-86
2022/09/12 05:42:22;;;;;;;;;;;;;;;20.71;49.51;99024.25;4475770;32;34153;-88
2022/09/12 05:44:49;;;;;;;;;;;;;;;20.53;50.36;99024.81;4483261;32;35241;-90
2022/09/12 05:47:17;;;;;;;;;;;;;;;21.01;49.15;99021.56;4483479;32;34636;-89
2022/09/12 05:49:46;;;;;;;;;;;;;;;21.19;48.67;99014.84;4481538;32;33280;-89
2022/09/12 05:52:13;;;;;;;;;;;;;;;21.48;48.24;99024.44;4483405;32;34834;-89
2022/09/12 05:54:41;;;;;;;;;;;;;;;21.42;48.20;99028.16;4482752;32;35065;-87
2022/09/12 05:57:08;;;;;;;;;;;;;;;21.90;47.02;99023.88;4483427;32;34829;-86
2022/09/12 05:59:36;;;;;;;;;;;;;;;21.33;48.36;99028.47;4468712;32;33040;-89
2022/09/12 06:02:04;;;;;;;;;;;;;;;20.05;51.97;99035.81;4477765;32;35145;-90
2022/09/12 06:04:31;;;;;;;;;;;;;;;20.75;50.25;99030.28;4473223;32;34269;-86
2022/09/12 06:06:58;;;;;;;;;;;;;;;20.95;49.84;99037.56;4474034;32;33156;-87
2022/09/12 06:09:26;;;;;;;;;;;;;;;20.90;50.08;99037.72;4473054;32;34080;-88
2022/09/12 06:11:54;;;;;;;;;;;;;;;20.85;50.09;99035.22;4482300;32;33829;-88
2022/09/12 06:14:22;;;;;;;;;;;;;;;21.56;48.39;99038.25;4481929;32;34386;-85
2022/09/12 06:16:49;;;;;;;;;;;;;;;21.36;48.80;99029.22;4479125;32;34297;-89
2022/09/12 06:19:19;;;;;;;;;;;;;;;21.53;48.01;99036.56;4464729;32;34237;-89
2022/09/12 06:21:52;;;;;;;;;;;;;;;21.39;48.77;99044.06;4467210;32;33882;-83
2022/09/12 06:24:20;;;;;;;;;;;;;;;21.24;49.41;99034.88;4455562;32;34045;-88
2022/09/12 06:26:47;;;;;;;;;;;;;;;21.21;49.56;99029.69;4478545;32;34287;-84
2022/09/12 06:29:14;;;;;;;;;;;;;;;20.21;52.13;99037.12;4482817;32;33552;-86
2022/09/12 06:31:42;;;;;;;;;;;;;;;20.71;51.06;99034.78;4479187;32;35002;-80
2022/09/12 06:34:10;;;;;;;;;;;;;;;20.77;50.43;99031.13;4467184;32;35219;-89
2022/09/12 06:36:38;;;;;;;;;;;;;;;20.48;51.74;99038.06;4453039;32;34921;-82
2022/09/12 06:39:06;;;;;;;;;;;;;;;21.44;49.37;99038.66;4471521;32;32995;-82
2022/09/12 06:41:33;;;;;;;;;;;;;;;20.82;50.19;99035.31;4476804;32;33443;-81
2022/09/12 06:44:01;;;;;;;;;;;;;;;20.03;52.25;99040.25;4482602;32;33855;-90
2022/09/12 06:46:29;;;;;;;;;;;;;;;20.98;49.61;99033.06;4482593;32;34136;-84
2022/09/12 06:48:58;;;;;;;;;;;;;;;19.33;54.20;99033.28;4468478;32;33650;-82
2022/09/12 06:51:26;;;;;;;;;;;;;;;19.95;52.91;99044.88;4482528;32;34182;-85
2022/09/12 06:53:54;;;;;;;;;;;;;;;20.49;51.58;99045.09;4468494;32;34414;-85
2022/09/12 06:56:22;;;;;;;;;;;;;;;20.27;52.50;99036.94;4482541;32;33962;-85
2022/09/12 06:58:50;;;;;;;;;;;;;;;20.06;53.34;99037.53;4482609;32;34094;-84
2022/09/12 07:01:18;;;;;;;;;;;;;;;20.74;51.86;99033.84;4482460;32;33961;-83
2022/09/12 07:03:47;;;;;;;;;;;;;;;20.47;51.86;99032.87;4468289;32;34150;-86
2022/09/12 07:06:15;;;;;;;;;;;;;;;20.37;52.45;99032.25;4468255;32;34495;-84
2022/09/12 07:08:43;;;;;;;;;;;;;;;20.67;50.83;99033.16;4482500;32;33321;-85
2022/09/12 07:11:11;;;;;;;;;;;;;;;20.61;51.20;99038.63;4482112;32;34998;-83
2022/09/12 07:13:38;;;;;;;;;;;;;;;20.88;50.04;99032.50;4482731;32;34498;-83
2022/09/12 07:16:06;;;;;;;;;;;;;;;19.87;52.73;99040.66;4482534;31;33786;-82
2022/09/12 07:18:33;;;;;;;;;;;;;;;19.77;53.22;99043.59;4482406;32;33165;-84
2022/09/12 07:21:01;;;;;;;;;;;;;;;20.46;51.57;99046.94;4482515;32;33466;-83
2022/09/12 07:23:28;;;;;;;;;;;;;;;20.87;50.63;99041.31;4484109;32;34402;-84
2022/09/12 07:25:56;;;;;;;;;;;;;;;21.19;50.09;99044.72;4484416;32;33830;-87
2022/09/12 07:28:23;;;;;;;;;;;;;;;21.31;49.32;99051.34;4470367;32;34146;-84
2022/09/12 07:30:52;;;;;;;;;;;;;;;21.04;49.98;99047.84;4484360;31;34022;-84
2022/09/12 07:33:20;;;;;;;;;;;;;;;21.09;49.82;99043.28;4484355;32;34375;-83
2022/09/12 07:35:48;;;;;;;;;;;;;;;21.84;48.58;99046.06;4484105;32;35341;-83
2022/09/12 07:38:15;;;;;;;;;;;;;;;20.75;49.96;99046.09;4484645;32;33372;-85
2022/09/12 07:40:43;;;;;;;;;;;;;;;21.75;48.32;99049.03;4484403;32;34559;-83
2022/09/12 07:43:10;;;;;;;;;;;;;;;21.49;48.63;99049.94;4484796;32;34029;-84
2022/09/12 07:45:40;;;;;;;;;;;;;;;22.28;46.50;99056.84;4484554;31;33851;-83
2022/09/12 07:48:07;;;;;;;;;;;;;;;22.92;44.50;99045.63;4484359;32;33982;-84
2022/09/12 07:50:35;;;;;;;;;;;;;;;22.23;45.90;99057.00;4484166;31;33760;-85
2022/09/12 07:53:03;;;;;;;;;;;;;;;22.83;44.75;99049.47;4484276;32;34165;-83
2022/09/12 07:55:30;;;;;;;;;;;;;;;23.72;43.36;99052.06;4484537;32;33821;-83
2022/09/12 07:57:57;;;;;;;;;;;;;;;23.72;43.14;99051.22;4470035;32;33188;-83
2022/09/12 08:00:34;;;;;;;;;;;;;;;21.66;47.60;99057.25;4484174;32;34362;-84
2022/09/12 08:03:02;;;;;;;;;;;;;;;22.52;45.75;99055.94;4484118;32;35306;-84
2022/09/12 08:05:29;;;;;;;;;;;;;;;23.05;43.89;99050.38;4484029;32;33675;-85
2022/09/12 08:07:56;;;;;;;;;;;;;;;22.56;45.32;99041.69;4484002;32;33937;-83
2022/09/12 08:10:24;;;;;;;;;;;;;;;22.71;44.60;99055.25;4484418;32;33855;-84
2022/09/12 08:12:51;;;;;;;;;;;;;;;23.53;43.54;99046.66;4484177;32;34502;-85
2022/09/12 08:15:19;;;;;;;;;;;;;;;23.37;42.79;99047.34;4484003;32;34776;-86
2022/09/12 08:17:46;;;;;;;;;;;;;;;24.48;41.63;99047.84;4470019;32;33561;-82
2022/09/12 08:20:13;;;;;;;;;;;;;;;24.33;40.69;99045.00;4484153;32;34350;-83
2022/09/12 08:22:42;;;;;;;;;;;;;;;23.33;43.21;99045.75;4483960;32;34277;-85
2022/09/12 08:25:09;;;;;;;;;;;;;;;23.64;42.34;99050.63;4484158;32;33957;-83
2022/09/12 08:27:36;;;;;;;;;;;;;;;24.14;41.25;99047.63;4470034;32;33098;-85
2022/09/12 08:30:05;;;;;;;;;;;;;;;23.83;41.47;99043.66;4483832;32;33267;-83
2022/09/12 08:32:33;;;;;;;;;;;;;;;23.36;42.66;99048.28;4470006;32;34572;-85
2022/09/12 08:35:00;;;;;;;;;;;;;;;21.94;45.28;99054.53;4483881;32;34368;-84
2022/09/12 08:37:30;;;;;;;;;;;;;;;22.86;44.34;99059.06;4483864;32;33046;-83
2022/09/12 08:39:59;;;;;;;;;;;;;;;22.64;44.02;99053.75;4484031;32;33858;-82
2022/09/12 08:42:42;;;;;;;;;;;;;;;23.66;42.57;99049.66;4483933;32;34617;-84
2022/09/12 08:45:16;;;;;;;;;;;;;;;23.71;41.90;99054.75;4469824;32;34370;-86
2022/09/12 08:47:43;;;;;;;;;;;;;;;23.53;42.15;99051.94;4469496;32;33511;-85
2022/09/12 08:50:14;;;;;;;;;;;;;;;23.22;42.54;99046.19;4469305;32;34350;-85
2022/09/12 08:52:57;;;;;;;;;;;;;;;22.57;43.44;99053.12;4483877;32;34065;-83
2022/09/12 08:55:26;;;;;;;;;;;;;;;23.09;42.60;99040.53;4469798;32;35128;-84
2022/09/12 08:57:53;;;;;;;;;;;;;;;23.21;42.88;99040.03;4469551;32;33489;-83
2022/09/12 09:00:21;;;;;;;;;;;;;;;23.33;41.76;99033.37;4483783;32;35007;-86
2022/09/12 09:02:58;;;;;;;;;;;;;;;23.02;42.21;99039.06;4483638;32;34615;-85
2022/09/12 09:05:33;;;;;;;;;;;;;;;23.96;40.70;99033.41;4484204;32;33774;-86
2022/09/12 09:08:09;;;;;;;;;;;;;;;24.05;40.16;99038.28;4469461;32;33488;-85
2022/09/12 09:10:47;;;;;;;;;;;;;;;24.56;39.95;99033.37;4483765;32;34648;-83
2022/09/12 09:14:46;;;;;;;;;;;;;;;24.57;39.44;99030.66;4469456;32;34223;-83
2022/09/12 09:16:08;;;;;;;;;;;;;;;24.72;38.75;99024.63;4471757;32;34235;-84
2022/09/12 09:18:36;;;;;;;;;;;;;;;23.93;39.39;99028.22;4469867;32;33146;-84
2022/09/12 09:21:32;;;;;;;;;;;;;;;24.41;39.47;99032.28;4483677;32;33734;-86
2022/09/12 09:24:01;;;;;;;;;;;;;;;23.93;39.21;99017.63;4470304;32;33700;-83
2022/09/12 09:26:32;;;;;;;;;;;;;;;24.52;37.86;99027.34;4469423;32;34189;-84
2022/09/12 09:29:10;;;;;;;;;;;;;;;24.11;39.08;99014.16;4469316;32;33179;-84
2022/09/12 09:31:37;;;;;;;;;;;;;;;24.96;36.41;99024.38;4469438;32;33845;-83
2022/09/12 09:34:20;;;;;;;;;;;;;;;24.38;37.58;99024.44;4483434;32;35129;-83
2022/09/12 09:36:49;;;;;;;;;;;;;;;24.23;38.58;99024.22;4483654;32;34905;-84
2022/09/12 09:39:30;;;;;;;;;;;;;;;24.16;39.61;99020.09;4469458;32;34136;-83
2022/09/12 09:42:18;;;;;;;;;;;;;;;24.35;39.97;99029.88;4469307;32;34050;-83
2022/09/12 09:44:47;;;;;;;;;;;;;;;24.15;39.76;99036.94;4450670;32;34501;-86
2022/09/12 09:47:14;;;;;;;;;;;;;;;23.73;39.74;99032.59;4483380;31;33926;-83
2022/09/12 09:49:41;;;;;;;;;;;;;;;24.68;38.60;99038.94;4469092;32;33348;-85
2022/09/12 09:52:10;;;;;;;;;;;;;;;25.18;37.78;99035.69;4469218;32;33859;-86
2022/09/12 09:54:48;;;;;;;;;;;;;;;24.47;38.74;99039.94;4469299;32;35157;-85
2022/09/12 09:57:35;;;;;;;;;;;;;;;24.71;38.35;99030.00;4483498;32;33815;-84
2022/09/12 10:00:22;;;;;;;;;;;;;;;25.70;36.49;99035.75;4483032;31;33266;-83
2022/09/12 10:02:59;;;;;;;;;;;;;;;24.49;38.82;99033.66;4483492;32;33881;-83
2022/09/12 10:05:27;;;;;;;;;;;;;;;24.92;39.44;99026.31;4483496;32;33975;-85
2022/09/12 10:07:55;;;;;;;;;;;;;;;25.58;36.56;99030.22;4483076;32;34895;-85
2022/09/12 10:10:22;;;;;;;;;;;;;;;25.02;37.71;99017.94;4469210;32;33573;-84
2022/09/12 10:12:49;;;;;;;;;;;;;;;25.09;38.04;99017.56;4483268;32;34292;-84
2022/09/12 10:15:17;;;;;;;;;;;;;;;24.99;37.66;99008.31;4482941;32;34000;-86
2022/09/12 10:17:45;;;;;;;;;;;;;;;25.53;36.84;99021.59;4468967;32;34794;-86
2022/09/12 10:20:31;;;;;;;;;;;;;;;25.56;38.49;99019.66;4483235;32;33479;-83
2022/09/12 10:22:59;;;;;;;;;;;;;;;24.59;37.02;99026.16;4483079;31;34295;-84
2022/09/12 10:25:26;;;;;;;;;;;;;;;24.96;37.33;99027.91;4483042;32;34989;-83
2022/09/12 10:27:55;;;;;;;;;;;;;;;25.80;35.08;99027.31;4482964;32;34803;-84
2022/09/12 10:30:26;;;;;;;;;;;;;;;25.56;36.00;99024.97;4482875;32;33348;-84
2022/09/12 10:33:03;;;;;;;;;;;;;;;25.81;36.29;99026.41;4456519;32;34334;-85
2022/09/12 10:35:40;;;;;;;;;;;;;;;25.04;37.83;99027.53;4468910;32;34253;-84
2022/09/12 10:38:21;;;;;;;;;;;;;;;24.91;37.66;99023.75;4483033;32;34078;-83
2022/09/12 10:40:54;;;;;;;;;;;;;;;25.51;36.34;99024.34;4468852;32;33434;-84
2022/09/12 10:43:24;;;;;;;;;;;;;;;25.51;36.71;99028.81;4482793;32;34828;-83
2022/09/12 10:46:01;;;;;;;;;;;;;;;25.52;37.28;99033.16;4482780;32;33870;-84
2022/09/12 10:48:30;;;;;;;;;;;;;;;25.50;37.48;99022.62;4468712;32;34284;-84
2022/09/12 10:50:58;;;;;;;;;;;;;;;25.28;38.29;99027.31;4482709;32;33058;-83
2022/09/12 10:53:26;;;;;;;;;;;;;;;24.90;38.77;99024.69;4468538;32;34906;-84
2022/09/12 10:56:05;;;;;;;;;;;;;;;24.96;39.08;99029.69;4482716;32;34441;-82
2022/09/12 10:58:35;;;;;;;;;;;;;;;24.81;39.13;99014.50;4469536;32;34563;-84
2022/09/12 11:01:12;;;;;;;;;;;;;;;25.37;38.55;99033.00;4484492;31;33673;-84
2022/09/12 11:03:40;;;;;;;;;;;;;;;24.55;40.02;99024.56;4470207;32;33777;-88
2022/09/12 11:06:07;;;;;;;;;;;;;;;24.72;39.50;99019.31;4484617;31;35194;-83
2022/09/12 11:08:50;;;;;;;;;;;;;;;24.50;39.86;99031.84;4470242;32;35008;-84
2022/09/12 11:11:24;;;;;;;;;;;;;;;24.46;39.92;99028.47;4470657;32;34058;-84
2022/09/12 11:13:54;;;;;;;;;;;;;;;24.08;41.00;99024.03;4484452;32;34342;-85
2022/09/12 11:16:21;;;;;;;;;;;;;;;24.54;39.57;99009.56;4484438;31;34490;-86
2022/09/12 11:18:52;;;;;;;;;;;;;;;24.32;40.68;99020.31;4484729;32;34239;-85
2022/09/12 11:21:43;;;;;;;;;;;;;;;24.01;40.94;99026.94;4484499;32;34159;-86
2022/09/12 11:24:15;;;;;;;;;;;;;;;23.04;42.51;99026.66;4470697;32;34099;-84
2022/09/12 11:26:57;;;;;;;;;;;;;;;23.92;41.50;99029.16;4484563;32;35537;-84
2022/09/12 11:29:25;;;;;;;;;;;;;;;24.43;39.47;99030.41;4470014;31;34804;-83
2022/09/12 11:32:04;;;;;;;;;;;;;;;24.50;39.80;99029.22;4484357;31;33234;-83
2022/09/12 11:34:37;;;;;;;;;;;;;;;24.73;39.52;99023.69;4484948;31;33684;-86
2022/09/12 11:37:12;;;;;;;;;;;;;;;24.41;39.55;99025.19;4484446;32;35507;-83
2022/09/12 11:39:44;;;;;;;;;;;;;;;25.16;38.71;99019.00;4470663;32;34126;-83
2022/09/12 11:42:14;;;;;;;;;;;;;;;25.10;38.23;99023.75;4484207;32;34080;-83
2022/09/12 11:44:42;;;;;;;;;;;;;;;25.31;37.60;99013.88;4470240;32;35018;-83
2022/09/12 11:47:10;;;;;;;;;;;;;;;24.95;38.63;99012.91;4470113;32;34304;-84
2022/09/12 11:49:48;;;;;;;;;;;;;;;25.15;38.02;99014.62;4484121;32;35092;-85
2022/09/12 11:52:17;;;;;;;;;;;;;;;25.13;39.58;99011.19;4469811;32;34483;-83
2022/09/12 11:55:00;;;;;;;;;;;;;;;25.12;39.22;99011.28;4469972;32;34956;-86
2022/09/12 11:57:43;;;;;;;;;;;;;;;24.85;39.57;99011.66;4483882;31;34215;-87
2022/09/12 12:00:16;;;;;;;;;;;;;;;23.90;41.37;99012.47;4469569;32;34064;-83
2022/09/12 12:02:50;;;;;;;;;;;;;;;23.67;42.14;99016.97;4469204;32;35113;-86
2022/09/12 12:05:24;;;;;;;;;;;;;;;24.16;40.99;99019.25;4469148;32;34925;-85
2022/09/12 12:07:54;;;;;;;;;;;;;;;24.56;40.00;99007.72;4468820;32;34874;-85
2022/09/12 12:10:25;;;;;;;;;;;;;;;24.58;40.57;99011.16;4469252;32;34786;-84
2022/09/12 12:12:53;;;;;;;;;;;;;;;25.08;39.51;98999.94;4483417;32;34217;-84
2022/09/12 12:15:20;;;;;;;;;;;;;;;24.80;39.66;99002.19;4468994;32;34308;-84
2022/09/12 12:18:01;;;;;;;;;;;;;;;23.78;41.88;98996.19;4469370;32;34408;-85
2022/09/12 12:20:28;;;;;;;;;;;;;;;24.80;40.51;99004.84;4469029;32;34474;-84
2022/09/12 12:22:55;;;;;;;;;;;;;;;24.78;39.27;98990.81;4483342;32;33327;-83
2022/09/12 12:25:39;;;;;;;;;;;;;;;24.80;40.23;98992.44;4483154;32;34093;-83
2022/09/12 12:28:07;;;;;;;;;;;;;;;25.17;38.84;98982.72;4469069;32;34464;-85
2022/09/12 12:30:35;;;;;;;;;;;;;;;25.12;37.73;98980.31;4483110;32;34087;-86
2022/09/12 12:33:09;;;;;;;;;;;;;;;24.57;39.23;98987.37;4483225;32;33149;-86
2022/09/12 12:35:45;;;;;;;;;;;;;;;24.94;39.12;98997.09;4483060;32;34131;-86
2022/09/12 12:38:32;;;;;;;;;;;;;;;25.31;37.77;98993.50;4483074;32;33775;-83
2022/09/12 12:41:15;;;;;;;;;;;;;;;25.01;37.58;98993.22;4482781;32;34932;-84
2022/09/12 12:43:43;;;;;;;;;;;;;;;24.19;39.46;99001.44;4482798;32;33652;-88
2022/09/12 12:46:17;;;;;;;;;;;;;;;24.92;38.09;99005.09;4468647;32;35002;-84
2022/09/12 12:48:49;;;;;;;;;;;;;;;24.50;38.73;98997.41;4469081;32;35305;-83
2022/09/12 12:51:26;;;;;;;;;;;;;;;24.15;39.54;98993.72;4482824;32;34366;-85
2022/09/12 12:53:53;;;;;;;;;;;;;;;24.51;37.36;98991.19;4482800;32;33331;-83
2022/09/12 12:56:34;;;;;;;;;;;;;;;24.50;39.08;98987.66;4482728;32;34055;-83
2022/09/12 12:59:03;;;;;;;;;;;;;;;24.55;38.35;98984.81;4468769;32;34442;-87
2022/09/12 13:01:30;;;;;;;;;;;;;;;24.87;38.52;98979.75;4458262;32;788278;-86
2022/09/12 13:03:58;;;;;;;;;;;;;;;24.47;40.25;98981.63;4483928;32;32888;-84
2022/09/12 13:06:35;;;;;;;;;;;;;;;25.04;37.90;98979.81;4469787;32;34348;-84